Whiting Field Naval Air Station North Airport
KNSE : now visible

Airfield :











YOU CAN JOIN US ON...

 
LOGIN :

Register | Disclaimer

   EN    FR    IT 

 









Legend :    VFR   Marginal VFR   IFR   Intensive IFR   Very Intensive IFR
Visi :
Ceiling :
>= 8 km
>= 3000ft
5 to 8 km
1000 to 3000 ft
1500m to 5 km
500 to 1000 ft
800 to 1500m
200 to 500 ft
< 800m
< 200 ft
Symbols :   Thunderstorms  Fog  Heavy snow  Heavy precipitations  Wind > 20 kt






- Airport Elevation : 199 ft


KNSE - Whiting Field Naval Air Station North

CURRENT METAR :
  • 291256Z VRB03KT 10SM FEW025 SCT160 BKN250 25/23 A3013 RMK SLP188 T02500228

EXPIRED METARs :
  • 291156Z VRB03KT 10SM FEW007 SCT023 SCT180 BKN250 23/22 A3011 RMK SLP182 60001 70030 T02280217 10233 20217 53017
  • 291056Z VRB03KT 10SM FEW016 FEW033 SCT180 BKN250 22/21 A3008 RMK SLP172 T02170211

TAF TAF KNSE
Valid from the 29 at 07:00 until the 30 at 07:00 UTC


2907/3007 VRB05KT 9999 SCT020 BKN080 BKN250 QNH3004INS
TEMPO 2908/2911 8000 -SHRA BR BKN020 OVC070
FM291100 10008KT 9999 VCSH SCT030CB BKN080 BKN200 QNH3010INS
TEMPO 2912/2916 VRB15G25KT 4800 TSRA BKN030CB OVC070
FM291800 15008KT 9999 VCTS SCT035CB BKN120 BKN250 QNH3009INS AUTOMATED SENSOR METWATCH 2907 TIL 2911 T28/2920Z T24/3005Z FN00150
KZJX FIR / North America



MET'MAP, your aeronautical weather chart ! - Copyright ORBIFLY December 2007 - Disclaimer

ORBIFLY MET'MAP TEAM :

Programming & Development : Alexandra Zaïnal
Original concept : Baudouin d'Aumeries
Technical & hardware support : Manuel Goepfert
Assistance : Marc-Olivier Méhu




SOURCES & CREDITS :

   NOAA       Earth
Advisory